createdAt,value
2018-08-31T00:01:43.629Z,15.80
2018-08-31T00:04:34.297Z,15.90
2018-08-31T00:07:15.050Z,15.90
2018-08-31T00:13:02.295Z,15.90
2018-08-31T00:15:31.253Z,15.80
2018-08-31T00:18:00.273Z,15.80
2018-08-31T00:20:29.172Z,15.80
2018-08-31T00:22:58.152Z,15.80
2018-08-31T00:26:08.390Z,15.80
2018-08-31T00:28:48.994Z,15.80
2018-08-31T00:33:38.691Z,15.80
2018-08-31T00:40:23.845Z,15.80
2018-08-31T00:43:03.882Z,15.70
2018-08-31T00:45:34.048Z,15.60
2018-08-31T00:48:03.471Z,15.60
2018-08-31T00:50:32.651Z,15.50
2018-08-31T00:53:02.051Z,15.50
2018-08-31T00:55:31.251Z,15.50
2018-08-31T00:58:00.278Z,15.50
2018-08-31T01:00:29.220Z,15.50
2018-08-31T01:02:58.227Z,15.50
2018-08-31T01:05:27.200Z,15.50
2018-08-31T01:07:56.248Z,15.40
2018-08-31T01:10:25.710Z,15.40
2018-08-31T01:12:55.279Z,15.40
2018-08-31T01:15:24.275Z,15.40
2018-08-31T01:17:53.220Z,15.40
2018-08-31T01:20:22.183Z,15.30
2018-08-31T01:22:51.205Z,15.30
2018-08-31T01:25:20.250Z,15.30
2018-08-31T01:27:49.153Z,15.20
2018-08-31T01:30:18.221Z,15.20
2018-08-31T01:32:47.167Z,15.20
2018-08-31T01:35:16.130Z,15.20
2018-08-31T01:37:45.071Z,15.20
2018-08-31T01:40:13.945Z,15.10
2018-08-31T01:42:43.014Z,15.10
2018-08-31T01:45:12.082Z,15.10
2018-08-31T01:47:41.203Z,15.00
2018-08-31T01:50:10.231Z,15.00
2018-08-31T01:52:39.313Z,14.90
2018-08-31T01:55:08.335Z,14.90
2018-08-31T01:57:37.440Z,14.90
2018-08-31T02:00:06.474Z,14.90
2018-08-31T02:02:35.484Z,14.90
2018-08-31T02:05:04.469Z,14.80
2018-08-31T02:07:33.548Z,14.80
2018-08-31T02:10:02.451Z,14.80
2018-08-31T02:12:31.443Z,14.80
2018-08-31T02:15:00.389Z,14.70
2018-08-31T02:17:29.264Z,14.70
2018-08-31T02:19:58.213Z,14.70
2018-08-31T02:22:27.127Z,14.70
2018-08-31T02:24:57.779Z,14.70
2018-08-31T02:27:26.721Z,14.70
2018-08-31T02:29:55.739Z,14.60
2018-08-31T02:32:24.593Z,14.60
2018-08-31T02:34:53.591Z,14.60
2018-08-31T02:37:22.480Z,14.60
2018-08-31T02:39:51.361Z,14.60
2018-08-31T02:42:20.276Z,14.50
2018-08-31T02:44:49.475Z,14.50
2018-08-31T02:47:18.383Z,14.50
2018-08-31T02:49:47.290Z,14.50
2018-08-31T02:52:16.287Z,14.50
2018-08-31T02:54:45.165Z,14.60
2018-08-31T02:57:14.139Z,14.50
2018-08-31T02:59:43.167Z,14.50
2018-08-31T03:02:12.128Z,14.50
2018-08-31T03:04:41.061Z,14.50
2018-08-31T03:07:10.106Z,14.50
2018-08-31T03:09:39.158Z,14.50
2018-08-31T03:12:07.747Z,14.50
2018-08-31T03:14:36.753Z,14.50
2018-08-31T03:17:05.735Z,14.50
2018-08-31T03:19:34.739Z,14.50
2018-08-31T03:22:03.805Z,14.50
2018-08-31T03:24:32.653Z,14.60
2018-08-31T03:27:01.606Z,14.50
2018-08-31T03:29:30.602Z,14.50
2018-08-31T03:31:59.596Z,14.60
2018-08-31T03:34:28.597Z,14.60
2018-08-31T03:36:57.923Z,14.50
2018-08-31T03:39:28.218Z,14.50
2018-08-31T03:41:57.160Z,14.40
2018-08-31T03:44:26.126Z,14.40
2018-08-31T03:46:55.216Z,14.40
2018-08-31T03:49:24.227Z,14.30
2018-08-31T03:51:53.290Z,14.30
2018-08-31T03:54:22.229Z,14.30
2018-08-31T03:56:51.223Z,14.30
2018-08-31T03:59:20.260Z,14.30
2018-08-31T04:01:55.788Z,14.30
2018-08-31T04:04:24.769Z,14.20
2018-08-31T04:06:53.732Z,14.20
2018-08-31T04:09:22.998Z,14.20
2018-08-31T04:11:52.013Z,14.20
2018-08-31T04:14:21.021Z,14.20
2018-08-31T04:16:50.022Z,14.20
2018-08-31T04:19:18.982Z,14.10
2018-08-31T04:21:48.167Z,14.20
2018-08-31T04:24:17.591Z,14.20
2018-08-31T04:26:47.283Z,14.20
2018-08-31T04:29:16.310Z,14.20
2018-08-31T04:31:45.333Z,14.20
2018-08-31T04:34:14.418Z,14.20
2018-08-31T04:36:43.647Z,14.20
2018-08-31T04:39:13.642Z,14.30
2018-08-31T04:41:43.788Z,14.30
2018-08-31T04:44:13.069Z,14.20
2018-08-31T04:46:42.217Z,14.20
2018-08-31T04:49:11.276Z,14.20
2018-08-31T04:51:40.342Z,14.20
2018-08-31T04:54:09.406Z,14.20
2018-08-31T04:56:38.454Z,14.10
2018-08-31T04:59:07.514Z,14.10
2018-08-31T05:01:36.494Z,14.00
2018-08-31T05:04:05.502Z,14.00
2018-08-31T05:06:34.501Z,14.00
2018-08-31T05:09:05.071Z,14.00
2018-08-31T05:11:34.122Z,14.00
2018-08-31T05:14:03.167Z,14.00
2018-08-31T05:16:32.305Z,13.90
2018-08-31T05:19:01.339Z,13.90
2018-08-31T05:21:30.460Z,13.90
2018-08-31T05:23:59.621Z,13.90
2018-08-31T05:26:28.631Z,13.90
2018-08-31T05:28:57.714Z,13.90
2018-08-31T05:31:26.766Z,13.90
2018-08-31T05:33:55.884Z,13.90
2018-08-31T05:36:24.922Z,14.00
2018-08-31T05:38:54.042Z,14.10
2018-08-31T05:41:23.074Z,14.10
2018-08-31T05:43:52.164Z,14.20
2018-08-31T05:46:21.215Z,14.20
2018-08-31T05:48:50.274Z,14.20
2018-08-31T05:51:19.596Z,14.20
2018-08-31T05:53:48.579Z,14.10
2018-08-31T05:56:17.687Z,14.10
2018-08-31T05:58:46.804Z,14.10
2018-08-31T06:01:15.784Z,14.20
2018-08-31T06:03:44.775Z,14.20
2018-08-31T06:06:13.746Z,14.30
2018-08-31T06:08:42.812Z,14.30
2018-08-31T06:11:11.765Z,14.30
2018-08-31T06:13:40.830Z,14.40
2018-08-31T06:16:10.042Z,14.50
2018-08-31T06:18:39.146Z,14.50
2018-08-31T06:21:08.254Z,14.60
2018-08-31T06:23:37.503Z,14.70
2018-08-31T06:26:06.508Z,14.80
2018-08-31T06:28:35.578Z,14.80
2018-08-31T06:31:04.641Z,14.90
2018-08-31T06:33:33.716Z,15.00
2018-08-31T06:36:02.704Z,15.10
2018-08-31T06:38:31.763Z,15.20
2018-08-31T06:41:00.897Z,15.30
2018-08-31T06:43:30.004Z,15.30
2018-08-31T06:45:59.154Z,15.40
2018-08-31T06:48:28.230Z,15.50
2018-08-31T06:50:57.374Z,15.60
2018-08-31T06:53:26.491Z,15.70
2018-08-31T06:55:55.542Z,15.70
2018-08-31T06:58:24.603Z,15.80
2018-08-31T07:00:53.685Z,15.90
2018-08-31T07:03:22.806Z,16.00
2018-08-31T07:05:52.203Z,16.20
2018-08-31T07:08:21.328Z,16.30
2018-08-31T07:10:50.352Z,16.40
2018-08-31T07:13:19.356Z,16.60
2018-08-31T07:15:48.250Z,16.80
2018-08-31T07:18:17.231Z,17.00
2018-08-31T07:20:46.150Z,17.20
2018-08-31T07:23:15.115Z,17.30
2018-08-31T07:25:44.179Z,17.60
2018-08-31T07:28:13.267Z,17.90
2018-08-31T07:30:42.398Z,18.10
2018-08-31T07:33:11.437Z,18.40
2018-08-31T07:35:40.513Z,18.60
2018-08-31T07:38:09.599Z,18.80
2018-08-31T07:40:38.602Z,18.90
2018-08-31T07:43:07.618Z,19.10
2018-08-31T07:45:36.710Z,19.40
2018-08-31T07:48:05.778Z,19.60
2018-08-31T07:50:34.751Z,19.80
2018-08-31T07:53:03.737Z,20.00
2018-08-31T07:55:32.673Z,20.00
2018-08-31T07:58:02.522Z,20.00
2018-08-31T08:00:31.513Z,20.20
2018-08-31T08:03:00.507Z,20.30
2018-08-31T08:05:29.818Z,20.50
2018-08-31T08:07:58.850Z,20.60
2018-08-31T08:10:27.831Z,20.60
2018-08-31T08:12:56.859Z,20.50
2018-08-31T08:15:25.941Z,20.30
2018-08-31T08:17:54.940Z,20.10
2018-08-31T08:20:24.411Z,20.10
2018-08-31T08:22:53.406Z,20.10
2018-08-31T08:25:22.389Z,20.10
2018-08-31T08:27:51.454Z,20.10
2018-08-31T08:30:20.569Z,20.10
2018-08-31T08:32:49.550Z,20.10
2018-08-31T08:35:18.595Z,20.10
2018-08-31T08:37:47.476Z,20.10
2018-08-31T08:40:16.520Z,20.10
2018-08-31T08:42:45.536Z,20.20
2018-08-31T08:45:14.505Z,20.20
2018-08-31T08:47:43.600Z,20.30
2018-08-31T08:50:12.671Z,20.40
2018-08-31T08:52:41.743Z,20.50
2018-08-31T08:55:10.788Z,20.60
2018-08-31T08:57:39.827Z,20.60
2018-08-31T09:00:08.910Z,20.60
2018-08-31T09:02:37.893Z,20.60
2018-08-31T09:05:06.945Z,20.60
2018-08-31T09:07:35.999Z,20.60
2018-08-31T09:10:05.229Z,20.70
2018-08-31T09:12:34.307Z,20.70
2018-08-31T09:15:03.346Z,20.80
2018-08-31T09:17:32.383Z,21.00
2018-08-31T09:20:01.444Z,21.10
2018-08-31T09:22:30.470Z,21.30
2018-08-31T09:24:59.489Z,21.50
2018-08-31T09:27:30.285Z,21.60
2018-08-31T09:29:59.333Z,21.50
2018-08-31T09:32:33.860Z,21.60
2018-08-31T09:35:02.866Z,21.70
2018-08-31T09:37:31.913Z,21.80
2018-08-31T09:40:00.982Z,21.80
2018-08-31T09:42:29.979Z,21.90
2018-08-31T09:44:58.981Z,21.90
2018-08-31T09:47:27.989Z,21.80
2018-08-31T09:49:57.142Z,21.70
2018-08-31T09:52:26.253Z,21.70
2018-08-31T09:54:55.280Z,21.70
2018-08-31T09:57:24.369Z,21.70
2018-08-31T09:59:53.375Z,21.70
2018-08-31T10:02:29.527Z,21.80
2018-08-31T10:04:59.003Z,21.80
2018-08-31T10:07:28.019Z,21.80
2018-08-31T10:09:57.081Z,22.00
2018-08-31T10:12:28.913Z,22.10
2018-08-31T10:14:57.945Z,22.30
2018-08-31T10:17:26.913Z,22.40
2018-08-31T10:19:55.971Z,22.40
2018-08-31T10:22:25.007Z,22.30
2018-08-31T10:24:54.065Z,22.20
2018-08-31T10:27:23.109Z,22.00
2018-08-31T10:29:52.105Z,22.00
2018-08-31T10:32:27.512Z,22.00
2018-08-31T10:34:56.515Z,21.80
2018-08-31T10:37:25.560Z,21.80
2018-08-31T10:39:54.524Z,21.90
2018-08-31T10:42:23.484Z,21.90
2018-08-31T10:44:52.656Z,21.90
2018-08-31T10:47:21.627Z,21.90
2018-08-31T10:49:50.521Z,22.00
2018-08-31T10:52:19.607Z,21.90
2018-08-31T10:54:49.995Z,22.00
2018-08-31T10:57:18.955Z,22.20
2018-08-31T10:59:47.986Z,22.50
2018-08-31T11:02:16.974Z,22.90
2018-08-31T11:04:46.034Z,23.10
2018-08-31T11:07:15.296Z,23.30
2018-08-31T11:09:44.355Z,23.30
2018-08-31T11:12:13.412Z,23.60
2018-08-31T11:14:42.387Z,23.90
2018-08-31T11:17:11.446Z,24.10
2018-08-31T11:19:40.452Z,24.50
2018-08-31T11:22:09.616Z,24.80
2018-08-31T11:24:38.592Z,25.00
2018-08-31T11:27:07.647Z,25.20
2018-08-31T11:29:36.720Z,25.20
2018-08-31T11:32:05.942Z,24.90
2018-08-31T11:34:35.064Z,24.90
2018-08-31T11:37:04.280Z,25.10
2018-08-31T11:39:33.296Z,25.30
2018-08-31T11:42:02.336Z,25.80
2018-08-31T11:44:31.382Z,26.30
2018-08-31T11:47:00.422Z,26.30
2018-08-31T11:49:29.394Z,26.30
2018-08-31T11:51:58.367Z,26.10
2018-08-31T11:54:27.404Z,26.10
2018-08-31T11:56:56.410Z,26.10
2018-08-31T11:59:25.562Z,26.20
2018-08-31T12:01:54.576Z,26.20
2018-08-31T12:04:23.528Z,26.10
2018-08-31T12:06:52.496Z,25.80
2018-08-31T12:09:21.479Z,25.90
2018-08-31T12:11:50.371Z,26.20
2018-08-31T12:14:19.275Z,26.40
2018-08-31T12:16:48.195Z,26.60
2018-08-31T12:19:17.165Z,26.70
2018-08-31T12:21:46.274Z,26.80
2018-08-31T12:24:15.217Z,27.20
2018-08-31T12:26:44.216Z,27.20
2018-08-31T12:29:13.168Z,27.20
2018-08-31T12:31:42.151Z,27.20
2018-08-31T12:34:11.117Z,27.30
2018-08-31T12:36:40.108Z,27.50
2018-08-31T12:39:10.442Z,27.60
2018-08-31T12:41:39.398Z,27.60
2018-08-31T12:44:08.324Z,27.30
2018-08-31T12:46:37.338Z,27.00
2018-08-31T12:49:06.334Z,26.80
2018-08-31T12:51:35.372Z,26.80
2018-08-31T12:54:04.465Z,26.70
2018-08-31T12:56:33.363Z,26.80
2018-08-31T12:59:02.422Z,26.60
2018-08-31T13:01:31.410Z,26.30
2018-08-31T13:04:00.408Z,26.00
2018-08-31T13:06:29.424Z,25.80
2018-08-31T13:08:58.403Z,25.90
2018-08-31T13:11:27.246Z,25.90
2018-08-31T13:13:56.183Z,25.80
2018-08-31T13:16:25.279Z,25.80
2018-08-31T13:18:54.298Z,25.70
2018-08-31T13:21:23.244Z,25.40
2018-08-31T13:23:52.139Z,25.30
2018-08-31T13:26:21.702Z,25.30
2018-08-31T13:28:50.654Z,25.30
2018-08-31T13:31:19.644Z,25.20
2018-08-31T13:33:48.542Z,25.00
2018-08-31T13:36:17.532Z,24.80
2018-08-31T13:38:46.570Z,24.70
2018-08-31T13:41:15.457Z,24.70
2018-08-31T13:43:44.449Z,24.70
2018-08-31T13:46:13.562Z,24.60
2018-08-31T13:48:42.531Z,24.70
2018-08-31T13:51:11.496Z,24.70
2018-08-31T13:53:40.508Z,24.70
2018-08-31T13:56:09.398Z,24.80
2018-08-31T13:58:38.350Z,24.90
2018-08-31T14:01:07.349Z,25.00
2018-08-31T14:03:36.238Z,25.00
2018-08-31T14:06:05.168Z,25.00
2018-08-31T14:08:34.108Z,25.00
2018-08-31T14:11:03.156Z,25.00
2018-08-31T14:13:32.150Z,24.90
2018-08-31T14:16:01.039Z,24.70
2018-08-31T14:18:30.799Z,24.60
2018-08-31T14:20:59.786Z,24.50
2018-08-31T14:23:28.825Z,24.40
2018-08-31T14:25:57.858Z,24.30
2018-08-31T14:28:26.837Z,24.20
2018-08-31T14:30:55.819Z,24.00
2018-08-31T14:33:24.758Z,23.80
2018-08-31T14:35:53.776Z,23.70
2018-08-31T14:38:22.765Z,23.50
2018-08-31T14:40:51.858Z,23.40
2018-08-31T14:43:20.865Z,23.20
2018-08-31T14:45:49.882Z,23.10
2018-08-31T14:48:19.441Z,23.00
2018-08-31T14:50:48.738Z,22.90
2018-08-31T14:53:17.847Z,22.80
2018-08-31T14:55:46.916Z,22.70
2018-08-31T14:58:16.003Z,22.60
2018-08-31T15:00:45.029Z,22.40
2018-08-31T15:03:14.016Z,22.30
2018-08-31T15:05:42.930Z,22.30
2018-08-31T15:08:12.002Z,22.20
2018-08-31T15:10:41.026Z,22.10
2018-08-31T15:13:10.142Z,22.00
2018-08-31T15:15:38.959Z,22.00
2018-08-31T15:18:07.831Z,21.90
2018-08-31T15:20:36.809Z,21.80
2018-08-31T15:23:05.806Z,21.80
2018-08-31T15:25:34.827Z,21.80
2018-08-31T15:28:03.715Z,21.80
2018-08-31T15:30:32.662Z,21.70
2018-08-31T15:33:01.651Z,21.60
2018-08-31T15:35:30.731Z,21.80
2018-08-31T15:37:59.721Z,21.80
2018-08-31T15:40:28.665Z,21.90
2018-08-31T15:42:57.609Z,21.90
2018-08-31T15:45:26.611Z,21.90
2018-08-31T15:47:55.633Z,21.80
2018-08-31T15:50:24.621Z,21.80
2018-08-31T15:52:53.607Z,21.80
2018-08-31T15:55:22.698Z,21.80
2018-08-31T15:57:51.669Z,21.80
2018-08-31T16:00:20.588Z,21.90
2018-08-31T16:02:49.504Z,22.00
2018-08-31T16:05:18.433Z,22.00
2018-08-31T16:07:47.390Z,21.90
2018-08-31T16:10:16.296Z,21.80
2018-08-31T16:12:45.309Z,21.90
2018-08-31T16:15:14.357Z,22.00
2018-08-31T16:17:43.294Z,21.90
2018-08-31T16:20:12.178Z,21.80
2018-08-31T16:22:41.194Z,21.70
2018-08-31T16:25:10.233Z,21.40
2018-08-31T16:27:39.482Z,21.20
2018-08-31T16:30:08.497Z,21.00
2018-08-31T16:32:37.470Z,20.80
2018-08-31T16:35:06.474Z,20.60
2018-08-31T16:37:35.557Z,20.50
2018-08-31T16:40:04.439Z,20.50
2018-08-31T16:42:33.529Z,20.40
2018-08-31T16:45:02.514Z,20.30
2018-08-31T16:47:31.543Z,20.20
2018-08-31T16:50:00.512Z,20.10
2018-08-31T16:52:29.464Z,20.10
2018-08-31T16:54:58.349Z,20.00
2018-08-31T16:57:27.292Z,19.90
2018-08-31T16:59:56.273Z,19.80
2018-08-31T17:02:25.371Z,19.70
2018-08-31T17:04:54.358Z,19.60
2018-08-31T17:07:23.291Z,19.40
2018-08-31T17:09:52.337Z,19.30
2018-08-31T17:12:21.287Z,19.30
2018-08-31T17:14:50.222Z,19.20
2018-08-31T17:17:19.171Z,19.10
2018-08-31T17:19:48.190Z,19.00
2018-08-31T17:22:17.202Z,18.90
2018-08-31T17:24:46.274Z,18.70
2018-08-31T17:27:20.568Z,18.50
2018-08-31T17:29:49.598Z,18.40
2018-08-31T17:32:23.886Z,18.30
2018-08-31T17:34:58.013Z,18.20
2018-08-31T17:37:34.926Z,18.10
2018-08-31T17:40:04.012Z,18.00
2018-08-31T17:42:35.834Z,17.90
2018-08-31T17:45:04.882Z,17.90
2018-08-31T17:47:33.902Z,17.80
2018-08-31T17:50:02.836Z,17.70
2018-08-31T17:52:31.867Z,17.70
2018-08-31T17:55:00.841Z,17.60
2018-08-31T17:57:29.863Z,17.50
2018-08-31T17:59:58.801Z,17.50
2018-08-31T18:02:27.754Z,17.50
2018-08-31T18:04:56.804Z,17.40
2018-08-31T18:07:25.890Z,17.40
2018-08-31T18:09:54.815Z,17.30
2018-08-31T18:12:23.813Z,17.30
2018-08-31T18:14:52.754Z,17.30
2018-08-31T18:17:21.798Z,17.20
2018-08-31T18:19:50.841Z,17.20
2018-08-31T18:22:19.776Z,17.20
2018-08-31T18:24:48.957Z,17.20
2018-08-31T18:27:17.909Z,17.20
2018-08-31T18:29:46.795Z,17.20
2018-08-31T18:32:15.965Z,17.10
2018-08-31T18:34:45.042Z,17.10
2018-08-31T18:37:14.128Z,17.00
2018-08-31T18:39:43.117Z,17.00
2018-08-31T18:42:12.139Z,17.00
2018-08-31T18:44:41.246Z,17.00
2018-08-31T18:47:10.322Z,17.00
2018-08-31T18:49:39.525Z,17.00
2018-08-31T18:52:08.710Z,16.90
2018-08-31T18:54:37.742Z,17.00
2018-08-31T18:57:06.889Z,16.90
2018-08-31T18:59:36.070Z,16.90
2018-08-31T19:02:05.137Z,16.90
2018-08-31T19:04:34.150Z,16.80
2018-08-31T19:07:03.280Z,16.80
2018-08-31T19:09:32.334Z,16.80
2018-08-31T19:12:01.376Z,16.80
2018-08-31T19:14:30.591Z,16.80
2018-08-31T19:16:59.606Z,16.90
2018-08-31T19:19:28.688Z,16.80
2018-08-31T19:21:57.743Z,16.90
2018-08-31T19:24:26.691Z,16.90
2018-08-31T19:26:57.209Z,16.90
2018-08-31T19:29:27.366Z,16.90
2018-08-31T19:31:56.364Z,16.90
2018-08-31T19:34:25.372Z,16.90
2018-08-31T19:36:54.325Z,16.80
2018-08-31T19:39:23.345Z,16.80
2018-08-31T19:41:52.327Z,16.70
2018-08-31T19:44:21.254Z,16.70
2018-08-31T19:46:50.205Z,16.70
2018-08-31T19:49:19.155Z,16.70
2018-08-31T19:51:48.018Z,16.70
2018-08-31T19:54:16.990Z,16.70
2018-08-31T19:56:46.090Z,16.70
2018-08-31T19:59:15.185Z,16.70
2018-08-31T20:01:44.149Z,16.70
2018-08-31T20:04:13.290Z,16.70
2018-08-31T20:06:42.228Z,16.70
2018-08-31T20:09:11.420Z,16.70
2018-08-31T20:11:40.497Z,16.80
2018-08-31T20:14:09.544Z,16.70
2018-08-31T20:16:39.090Z,16.80
2018-08-31T20:19:08.225Z,16.80
2018-08-31T20:21:37.133Z,16.70
2018-08-31T20:24:06.138Z,16.70
2018-08-31T20:26:35.070Z,16.70
2018-08-31T20:29:04.176Z,16.60
2018-08-31T20:31:33.156Z,16.60
2018-08-31T20:34:02.133Z,16.60
2018-08-31T20:36:31.165Z,16.70
2018-08-31T20:39:00.097Z,16.60
2018-08-31T20:41:29.116Z,16.60
2018-08-31T20:43:58.083Z,16.60
2018-08-31T20:46:27.143Z,16.60
2018-08-31T20:48:56.144Z,16.60
2018-08-31T20:51:25.083Z,16.60
2018-08-31T20:53:54.030Z,16.60
2018-08-31T20:56:23.081Z,16.60
2018-08-31T20:58:51.990Z,16.60
2018-08-31T21:01:20.925Z,16.60
2018-08-31T21:03:50.076Z,16.60
2018-08-31T21:06:19.220Z,16.50
2018-08-31T21:08:48.265Z,16.50
2018-08-31T21:11:17.210Z,16.50
2018-08-31T21:13:46.176Z,16.50
2018-08-31T21:16:15.076Z,16.50
2018-08-31T21:18:44.005Z,16.40
2018-08-31T21:21:12.925Z,16.40
2018-08-31T21:23:42.073Z,16.40
2018-08-31T21:26:11.077Z,16.40
2018-08-31T21:28:40.011Z,16.40
2018-08-31T21:31:08.968Z,16.40
2018-08-31T21:33:37.959Z,16.30
2018-08-31T21:36:07.350Z,16.30
2018-08-31T21:38:36.322Z,16.30
2018-08-31T21:41:05.347Z,16.20
2018-08-31T21:43:34.283Z,16.20
2018-08-31T21:46:03.285Z,16.20
2018-08-31T21:48:32.441Z,16.20
2018-08-31T21:51:01.468Z,16.20
2018-08-31T21:53:30.573Z,16.20
2018-08-31T21:55:59.537Z,16.20
2018-08-31T21:58:28.619Z,16.20
2018-08-31T22:01:02.767Z,16.20
2018-08-31T22:03:31.861Z,16.20
2018-08-31T22:06:00.818Z,16.10
2018-08-31T22:08:29.890Z,16.10
2018-08-31T22:10:58.905Z,16.00
2018-08-31T22:13:27.916Z,16.00
2018-08-31T22:15:56.950Z,16.10
2018-08-31T22:18:25.950Z,16.10
2018-08-31T22:20:54.956Z,16.10
2018-08-31T22:23:24.030Z,16.10
2018-08-31T22:25:53.948Z,16.10
2018-08-31T22:28:22.891Z,16.00
2018-08-31T22:30:51.846Z,16.00
2018-08-31T22:33:20.835Z,16.00
2018-08-31T22:35:49.949Z,16.00
2018-08-31T22:38:18.975Z,15.90
2018-08-31T22:40:47.865Z,15.90
2018-08-31T22:43:16.850Z,15.90
2018-08-31T22:45:45.870Z,15.90
2018-08-31T22:48:14.814Z,15.80
2018-08-31T22:50:43.899Z,15.80
2018-08-31T22:53:12.934Z,15.80
2018-08-31T22:55:41.881Z,15.80
2018-08-31T22:58:10.950Z,15.70
2018-08-31T23:00:39.944Z,15.70
2018-08-31T23:03:09.151Z,15.70
2018-08-31T23:05:38.130Z,15.70
2018-08-31T23:08:07.206Z,15.60
2018-08-31T23:10:36.149Z,15.60
2018-08-31T23:13:05.357Z,15.50
2018-08-31T23:15:34.270Z,15.50
2018-08-31T23:18:03.205Z,15.50
2018-08-31T23:20:32.150Z,15.40
2018-08-31T23:23:06.230Z,15.40
2018-08-31T23:25:40.434Z,15.40
2018-08-31T23:28:09.391Z,15.30
2018-08-31T23:30:38.366Z,15.20
2018-08-31T23:33:07.318Z,15.20
2018-08-31T23:35:36.265Z,15.30
2018-08-31T23:38:05.293Z,15.20
2018-08-31T23:40:34.314Z,15.20
2018-08-31T23:43:03.264Z,15.20
2018-08-31T23:45:32.383Z,15.20
2018-08-31T23:48:01.281Z,15.10
2018-08-31T23:50:30.283Z,15.10
2018-08-31T23:52:59.280Z,15.10
2018-08-31T23:55:28.233Z,15.10
2018-08-31T23:57:57.252Z,15.10
